Fort Sumner, New Mexico
Current Conditions -  °F | °C
As of 12:56 PM on Thursday 30 Oct 2014 (Local Time) from K4MR Reporting Station
Clear Clear  
Wind Chill: 70°   Ceiling: Unl
Heat Index: 70°   Visibility: 10mi
Dew Point: 26°   Wind: 21mph
Humidity: 19%   Direction: 40°NE
Pressure: 30.28"   Gusts: 29mph
Location:  34.47°N, 104.25°W
Report Text: K4MR 301856Z AUTO 04018G25KT 10SM CLR 21/M04 A3028 RMK AO2 SLP216 T02121036
Loading
Personal Weather Stations






























Interactive Weather Map
Tropical Storm Tracking
New forecast layout! Learn more

10-Day Weather Forecast

Advertisements
Track Severe Weather on mobile